Time;durP1;ratioP1;P1;durP2;ratioP2;P2;SDS_P1;SDS_P2;PMS_P1;PMS_P2;Temp;Humidity;BMP_temperature;BMP_pressure;BME280_temperature;BME280_humidity;BME280_pressure;Samples;Min_cycle;Max_cycle;Signal;HPM_P1;HPM_P2
2023/05/12 00:00:05;;;;;;;2.90;1.60;;;;;;;8.99;50.04;99942.16;109555;1252;61484;-70
2023/05/12 00:02:37;;;;;;;2.20;1.50;;;;;;;9.01;49.78;99940.71;109509;1253;62570;-70
2023/05/12 00:05:04;;;;;;;3.00;1.60;;;;;;;9.03;49.70;99942.84;109486;1251;75149;-69
2023/05/12 00:07:31;;;;;;;3.70;1.70;;;;;;;9.04;49.28;99944.83;109526;1251;68349;-69
2023/05/12 00:09:58;;;;;;;2.20;1.60;;;;;;;9.05;49.22;99942.77;109605;1251;72443;-70
2023/05/12 00:12:25;;;;;;;3.10;1.80;;;;;;;9.04;49.20;99944.00;109599;1251;59050;-69
2023/05/12 00:14:51;;;;;;;3.40;1.70;;;;;;;9.03;49.20;99941.92;109602;1251;58984;-70
2023/05/12 00:17:18;;;;;;;2.50;1.60;;;;;;;9.03;49.14;99942.65;109557;1251;75486;-70
2023/05/12 00:19:45;;;;;;;2.90;1.60;;;;;;;9.01;49.06;99945.63;109624;1253;66963;-70
2023/05/12 00:22:13;;;;;;;2.70;1.70;;;;;;;9.00;48.90;99943.25;109542;1253;73668;-69
2023/05/12 00:24:39;;;;;;;1.80;1.60;;;;;;;8.99;48.86;99945.73;109565;1251;58970;-70
2023/05/12 00:27:06;;;;;;;2.30;1.70;;;;;;;8.97;48.95;99945.52;109616;1251;59886;-70
2023/05/12 00:29:33;;;;;;;4.20;1.90;;;;;;;8.96;48.86;99945.99;109655;1253;75957;-70
2023/05/12 00:32:00;;;;;;;4.60;2.00;;;;;;;8.96;48.77;99945.99;109565;1251;70021;-70
2023/05/12 00:34:27;;;;;;;4.80;1.80;;;;;;;8.96;48.82;99945.61;109579;1251;70524;-70
2023/05/12 00:36:54;;;;;;;5.50;2.70;;;;;;;8.95;48.71;99947.30;109554;1251;58957;-70
2023/05/12 00:39:21;;;;;;;3.50;1.90;;;;;;;8.94;48.87;99947.94;109588;1251;60125;-69
2023/05/12 00:41:49;;;;;;;5.90;1.80;;;;;;;8.92;48.75;99947.44;109546;1251;76020;-70
2023/05/12 00:44:17;;;;;;;3.60;2.20;;;;;;;8.89;48.95;99948.99;109468;1251;66887;-69
2023/05/12 00:46:44;;;;;;;2.80;2.10;;;;;;;8.87;48.87;99950.27;109587;1251;74948;-70
2023/05/12 00:49:11;;;;;;;2.30;2.00;;;;;;;8.85;48.99;99951.11;109617;1251;60765;-69
2023/05/12 00:51:38;;;;;;;3.90;2.00;;;;;;;8.84;49.01;99951.41;109520;1251;62610;-69
2023/05/12 00:54:05;;;;;;;4.00;2.50;;;;;;;8.81;48.95;99951.34;109616;1251;75540;-69
2023/05/12 00:56:38;;;;;;;4.20;1.80;;;;;;;8.78;49.13;99949.33;109408;1251;69176;-69
2023/05/12 00:59:07;;;;;;;5.00;2.40;;;;;;;8.76;49.25;99949.56;109627;1251;73709;-70
2023/05/12 01:01:36;;;;;;;4.00;2.00;;;;;;;8.74;49.36;99952.05;109368;1251;61633;-70
2023/05/12 01:04:03;;;;;;;3.10;2.10;;;;;;;8.72;49.27;99949.21;109571;1251;60318;-70
2023/05/12 01:06:33;;;;;;;7.20;2.00;;;;;;;8.69;49.48;99956.39;109456;1253;76485;-70
2023/05/12 01:09:00;;;;;;;4.80;2.50;;;;;;;8.66;49.50;99956.17;109525;1252;69937;-69
2023/05/12 01:11:26;;;;;;;3.40;1.90;;;;;;;8.64;49.65;99958.30;109591;1252;74897;-69
2023/05/12 01:13:53;;;;;;;1.90;1.80;;;;;;;8.61;49.80;99952.37;109541;1254;61568;-69
2023/05/12 01:16:22;;;;;;;4.70;2.00;;;;;;;8.57;49.75;99958.39;109354;1254;61682;-70
2023/05/12 01:18:52;;;;;;;4.00;1.70;;;;;;;8.54;49.83;99957.35;109386;1253;74892;-70
2023/05/12 01:21:19;;;;;;;5.10;2.20;;;;;;;8.49;49.92;99954.95;109510;1254;66970;-70
2023/05/12 01:23:57;;;;;;;2.20;2.00;;;;;;;8.45;50.13;99961.23;109387;1252;73701;-70
2023/05/12 01:26:28;;;;;;;3.60;2.20;;;;;;;8.37;50.41;99959.45;109419;1253;63007;-69
2023/05/12 01:28:55;;;;;;;3.30;2.50;;;;;;;8.32;50.54;99962.95;109201;1253;60151;-69
2023/05/12 01:31:23;;;;;;;2.60;2.30;;;;;;;8.29;50.61;99967.67;109375;1254;76608;-69
2023/05/12 01:33:49;;;;;;;5.50;2.90;;;;;;;8.25;50.97;99964.29;109316;1253;69329;-69
2023/05/12 01:36:16;;;;;;;4.90;3.40;;;;;;;8.21;51.25;99967.38;109428;1252;75137;-69
2023/05/12 01:38:43;;;;;;;3.50;2.40;;;;;;;8.15;51.44;99968.62;109590;1252;60275;-70
2023/05/12 01:41:10;;;;;;;2.80;2.40;;;;;;;8.10;51.73;99970.80;109381;1253;61771;-69
2023/05/12 01:43:37;;;;;;;4.00;2.50;;;;;;;8.07;52.15;99973.80;109463;1258;74423;-68
2023/05/12 01:46:04;;;;;;;2.10;1.80;;;;;;;8.01;52.52;99971.30;109262;1254;69145;-68
2023/05/12 01:48:31;;;;;;;3.50;2.10;;;;;;;7.97;52.73;99976.83;109356;1254;74075;-68
2023/05/12 01:51:01;;;;;;;4.00;2.70;;;;;;;7.94;52.93;99977.52;109518;1253;60918;-68
2023/05/12 01:53:27;;;;;;;2.60;2.40;;;;;;;7.88;53.70;99979.60;109458;1252;61232;-68
2023/05/12 01:55:54;;;;;;;5.80;2.10;;;;;;;7.84;54.21;99983.58;109538;1253;77195;-68
2023/05/12 01:58:21;;;;;;;3.50;2.50;;;;;;;7.77;54.68;99982.98;109518;1253;66855;-68
2023/05/12 02:00:48;;;;;;;3.80;2.60;;;;;;;7.69;55.69;99986.30;109429;1251;73640;-68
2023/05/12 02:03:15;;;;;;;4.00;2.60;;;;;;;7.61;57.04;99988.86;109428;1253;60837;-67
2023/05/12 02:05:42;;;;;;;4.10;2.90;;;;;;;7.52;57.87;99988.58;109563;1252;61461;-68
2023/05/12 02:08:09;;;;;;;4.80;2.90;;;;;;;7.43;58.06;99988.83;109613;1253;75971;-69
2023/05/12 02:10:37;;;;;;;5.60;2.80;;;;;;;7.37;58.39;99994.83;109376;1254;69176;-68
2023/05/12 02:13:03;;;;;;;6.50;2.60;;;;;;;7.32;59.23;99993.96;109379;1252;71951;-69
2023/05/12 02:15:31;;;;;;;4.30;3.20;;;;;;;7.25;60.31;99994.95;109457;1252;60969;-69
2023/05/12 02:17:58;;;;;;;4.10;3.00;;;;;;;7.17;61.66;99992.09;109529;1253;60258;-69
2023/05/12 02:20:27;;;;;;;3.00;2.60;;;;;;;7.12;63.31;99993.66;109602;1253;75552;-68
2023/05/12 02:22:55;;;;;;;4.10;2.70;;;;;;;7.05;63.99;99991.95;109488;1253;69879;-68
2023/05/12 02:25:21;;;;;;;4.30;2.90;;;;;;;7.00;65.51;99991.54;109458;1253;72711;-68
2023/05/12 02:27:48;;;;;;;3.70;2.50;;;;;;;6.94;66.95;99993.14;109354;1253;61302;-69
2023/05/12 02:30:15;;;;;;;5.10;2.70;;;;;;;6.87;67.40;99990.45;109434;1253;60871;-69
2023/05/12 02:32:42;;;;;;;4.40;3.30;;;;;;;6.80;69.11;99995.04;109403;1253;74395;-70
2023/05/12 02:35:09;;;;;;;5.10;3.40;;;;;;;6.72;70.46;99992.78;109381;1254;70257;-69
2023/05/12 02:37:36;;;;;;;4.40;3.90;;;;;;;6.64;71.66;99999.87;109513;1254;72779;-68
2023/05/12 02:40:03;;;;;;;5.00;3.40;;;;;;;6.54;73.57;99999.66;109383;1252;59204;-69
2023/05/12 02:42:34;;;;;;;4.00;3.10;;;;;;;6.45;75.00;100003.61;109537;1253;60428;-69
2023/05/12 02:45:01;;;;;;;4.10;3.20;;;;;;;6.40;75.67;100003.36;109575;1254;74757;-69
2023/05/12 02:47:31;;;;;;;7.70;3.00;;;;;;;6.39;76.75;100002.00;109586;1253;68802;-68
2023/05/12 02:49:58;;;;;;;6.30;3.20;;;;;;;6.40;76.47;99999.10;109324;1252;75059;-68
2023/05/12 02:52:25;;;;;;;3.50;2.90;;;;;;;6.43;75.95;100003.45;109350;1253;60284;-69
2023/05/12 02:54:52;;;;;;;7.40;3.10;;;;;;;6.45;76.81;100007.33;109521;1254;59623;-70
2023/05/12 02:57:19;;;;;;;8.40;3.60;;;;;;;6.43;80.00;100007.34;109368;1254;73098;-68
2023/05/12 02:59:46;;;;;;;5.70;3.60;;;;;;;6.39;82.00;100006.80;109530;1253;68721;-68
2023/05/12 03:02:13;;;;;;;6.40;4.40;;;;;;;6.38;84.07;100008.48;109509;1256;72810;-68
2023/05/12 03:04:40;;;;;;;6.20;3.60;;;;;;;6.37;87.27;100009.23;109510;1253;59257;-69
2023/05/12 03:07:08;;;;;;;9.00;3.90;;;;;;;6.35;90.72;100015.27;109634;1252;62592;-69
2023/05/12 03:09:35;;;;;;;7.30;4.00;;;;;;;6.30;92.77;100017.06;109417;1253;74331;-69
2023/05/12 03:12:01;;;;;;;4.20;2.80;;;;;;;6.24;94.24;100017.89;109589;1252;69761;-69
2023/05/12 03:14:28;;;;;;;6.10;2.90;;;;;;;6.23;95.06;100019.28;109357;1253;73151;-69
2023/05/12 03:16:55;;;;;;;4.50;3.10;;;;;;;6.25;94.53;100018.54;109421;1255;59197;-69
2023/05/12 03:19:22;;;;;;;3.00;2.60;;;;;;;6.33;93.91;100010.63;109601;1252;61276;-69
2023/05/12 03:21:49;;;;;;;4.20;3.10;;;;;;;6.48;92.12;100009.84;109364;1252;74479;-69
2023/05/12 03:24:16;;;;;;;3.20;2.90;;;;;;;6.68;89.91;100012.38;109591;1253;68191;-69
2023/05/12 03:26:43;;;;;;;7.10;3.20;;;;;;;6.89;90.14;100010.14;109540;1253;74764;-68
2023/05/12 03:29:09;;;;;;;3.30;2.80;;;;;;;7.11;92.04;100015.98;109546;1253;61533;-69
2023/05/12 03:31:36;;;;;;;4.70;2.80;;;;;;;7.31;92.86;100021.89;109562;1254;60986;-69
2023/05/12 03:34:03;;;;;;;4.30;3.20;;;;;;;7.52;90.54;100024.27;109367;1256;73478;-69
2023/05/12 03:36:30;;;;;;;5.90;3.00;;;;;;;7.66;89.12;100024.55;109552;1253;68832;-69
2023/05/12 03:38:57;;;;;;;3.20;2.60;;;;;;;7.80;86.96;100026.15;109542;1253;73165;-69
2023/05/12 03:41:24;;;;;;;3.00;2.70;;;;;;;7.95;83.85;100022.91;109351;1253;59005;-68
2023/05/12 03:43:50;;;;;;;4.50;2.70;;;;;;;8.09;81.31;100026.21;109464;1253;61090;-69
2023/05/12 03:46:17;;;;;;;6.70;2.60;;;;;;;8.18;79.67;100025.95;109536;1252;75478;-69
2023/05/12 03:48:44;;;;;;;7.10;3.20;;;;;;;8.22;80.68;100027.64;109546;1253;69442;-69
2023/05/12 03:51:11;;;;;;;5.40;2.90;;;;;;;8.31;81.25;100028.50;109564;1253;73069;-68
2023/05/12 03:53:44;;;;;;;3.20;2.30;;;;;;;8.48;79.83;100030.75;109351;1253;60356;-69
2023/05/12 03:56:11;;;;;;;7.20;3.30;;;;;;;8.72;79.73;100034.41;109397;1258;62787;-69
2023/05/12 03:58:38;;;;;;;5.90;3.40;;;;;;;8.94;80.46;100033.23;109558;1253;76892;-70
2023/05/12 04:01:05;;;;;;;4.10;2.70;;;;;;;9.07;77.45;100034.20;109545;1254;70012;-69
2023/05/12 04:03:32;;;;;;;5.50;3.60;;;;;;;9.14;74.85;100034.13;109489;1254;74846;-70
2023/05/12 04:06:03;;;;;;;6.80;2.70;;;;;;;9.19;72.99;100035.17;109335;1253;62240;-69
2023/05/12 04:08:30;;;;;;;4.80;2.30;;;;;;;9.34;72.90;100037.61;109454;1254;62303;-68
2023/05/12 04:10:57;;;;;;;4.40;2.40;;;;;;;9.67;72.58;100033.61;109608;1252;75529;-68
2023/05/12 04:13:24;;;;;;;4.40;2.90;;;;;;;10.09;70.38;100036.36;109462;1253;68617;-69
2023/05/12 04:15:54;;;;;;;8.60;3.00;;;;;;;10.34;67.27;100038.04;109395;1253;74512;-68
2023/05/12 04:18:21;;;;;;;3.80;2.20;;;;;;;10.53;65.14;100033.67;109534;1254;62410;-69
2023/05/12 04:20:48;;;;;;;5.20;3.40;;;;;;;10.82;63.53;100030.42;109291;1259;62459;-71
2023/05/12 04:23:15;;;;;;;2.60;2.40;;;;;;;11.19;62.58;100031.45;109404;1254;73646;-71
2023/05/12 04:25:42;;;;;;;2.90;2.20;;;;;;;11.70;60.98;100035.08;109344;1254;66653;-70
2023/05/12 04:28:09;;;;;;;3.10;2.50;;;;;;;12.28;58.40;100035.29;109499;1254;74729;-69
2023/05/12 04:30:39;;;;;;;3.10;2.70;;;;;;;12.80;55.92;100032.38;109295;1254;61132;-69
2023/05/12 04:33:05;;;;;;;6.40;2.90;;;;;;;13.17;53.68;100032.30;109474;1254;62373;-69
2023/05/12 04:35:33;;;;;;;4.80;2.50;;;;;;;13.52;52.38;100031.64;109416;1253;76936;-70
2023/05/12 04:38:03;;;;;;;4.80;2.60;;;;;;;13.88;51.42;100028.63;109266;1254;69569;-71
2023/05/12 04:40:30;;;;;;;2.60;2.20;;;;;;;14.41;51.03;100029.38;109235;1253;74176;-69
2023/05/12 04:43:00;;;;;;;9.40;3.10;;;;;;;15.03;50.68;100024.64;109232;1254;62749;-69
2023/05/12 04:45:29;;;;;;;4.30;2.20;;;;;;;15.58;49.17;100020.41;109327;1253;59062;-68
2023/05/12 04:47:56;;;;;;;5.90;2.90;;;;;;;16.04;47.22;100020.52;109269;1253;76688;-67
2023/05/12 04:50:22;;;;;;;5.30;3.00;;;;;;;16.54;45.17;100018.18;109356;1254;68409;-68
2023/05/12 04:52:49;;;;;;;7.50;2.80;;;;;;;16.97;42.98;100019.80;109339;1254;74887;-67
2023/05/12 04:55:16;;;;;;;9.30;3.00;;;;;;;17.32;41.59;100015.05;109494;1254;62458;-67
2023/05/12 04:57:43;;;;;;;14.50;3.30;;;;;;;17.56;40.83;100018.70;109363;1253;62448;-69
2023/05/12 05:00:11;;;;;;;4.90;3.50;;;;;;;17.86;40.29;100019.41;109486;1254;75784;-71
2023/05/12 05:02:38;;;;;;;3.10;2.70;;;;;;;18.26;39.53;100016.70;109321;1253;69374;-72
2023/05/12 05:05:05;;;;;;;9.10;3.00;;;;;;;18.70;38.40;100013.34;109525;1254;73729;-68
2023/05/12 05:07:32;;;;;;;5.20;3.20;;;;;;;19.18;37.54;100014.22;109419;1257;61219;-66
2023/05/12 05:09:59;;;;;;;9.30;3.10;;;;;;;19.66;36.76;100016.77;109589;1251;62146;-69
2023/05/12 05:12:27;;;;;;;2.80;2.40;;;;;;;20.16;35.94;100020.63;109438;1254;77253;-62
2023/05/12 05:14:54;;;;;;;4.40;3.00;;;;;;;20.59;34.59;100019.34;109431;1251;69712;-63
2023/05/12 05:17:21;;;;;;;7.10;2.70;;;;;;;20.96;34.02;100014.50;109296;1251;73028;-68
2023/05/12 05:19:49;;;;;;;4.00;2.70;;;;;;;21.47;33.53;100017.09;109531;1256;60456;-66
2023/05/12 05:22:24;;;;;;;2.40;2.20;;;;;;;21.94;32.38;100015.68;109446;1251;61705;-63
2023/05/12 05:24:51;;;;;;;2.50;2.20;;;;;;;22.35;31.61;100012.42;109386;1251;73515;-66
2023/05/12 05:27:18;;;;;;;4.10;2.90;;;;;;;22.68;31.50;100015.42;109639;1251;68479;-66
2023/05/12 05:29:45;;;;;;;6.50;2.40;;;;;;;23.11;30.81;100014.83;109462;1251;75078;-69
2023/05/12 05:32:12;;;;;;;7.00;2.60;;;;;;;23.55;29.94;100012.63;109424;1251;61256;-69
2023/05/12 05:34:39;;;;;;;6.80;2.60;;;;;;;24.00;28.87;100012.86;109482;1251;62391;-68
2023/05/12 05:37:05;;;;;;;9.40;3.10;;;;;;;24.38;28.29;100017.23;109578;1251;76766;-69
2023/05/12 05:39:32;;;;;;;8.90;2.30;;;;;;;24.77;28.03;100015.89;109612;1251;68500;-69
2023/05/12 05:41:59;;;;;;;5.70;2.60;;;;;;;25.20;27.39;100014.44;109364;1251;73974;-66
2023/05/12 05:44:26;;;;;;;6.90;2.90;;;;;;;25.69;27.35;100010.20;109436;1251;61238;-67
2023/05/12 05:46:54;;;;;;;7.30;3.10;;;;;;;26.26;26.09;100017.17;109557;1254;60166;-69
2023/05/12 05:49:22;;;;;;;5.60;2.80;;;;;;;26.68;25.32;100014.20;109436;1256;76048;-64
2023/05/12 05:51:50;;;;;;;4.80;2.50;;;;;;;27.02;24.67;100011.54;109453;1259;70602;-67
2023/05/12 05:54:17;;;;;;;4.20;3.00;;;;;;;27.46;24.48;100012.09;109369;1256;74879;-66
2023/05/12 05:56:44;;;;;;;5.20;2.50;;;;;;;27.95;24.01;100011.76;109320;1251;62018;-70
2023/05/12 05:59:13;;;;;;;8.00;2.50;;;;;;;28.44;23.55;100008.15;109557;1251;60581;-74
2023/05/12 06:01:40;;;;;;;6.80;2.60;;;;;;;28.94;22.69;100002.90;109491;1251;76911;-69
2023/05/12 06:04:07;;;;;;;6.70;2.90;;;;;;;29.42;22.09;100007.02;109298;1251;69195;-73
2023/05/12 06:06:34;;;;;;;10.80;2.60;;;;;;;29.72;21.45;100010.67;109356;1254;73089;-67
2023/05/12 06:09:01;;;;;;;11.60;2.60;;;;;;;29.93;20.87;100010.56;109421;1252;59327;-69
2023/05/12 06:11:27;;;;;;;2.70;2.00;;;;;;;29.98;18.93;100012.84;109508;1254;62496;-68
2023/05/12 06:13:54;;;;;;;2.70;1.60;;;;;;;29.71;17.55;100012.43;109523;1253;75704;-70
2023/05/12 06:16:24;;;;;;;3.10;1.50;;;;;;;29.64;16.88;100013.29;109457;1253;68875;-71
2023/05/12 06:18:50;;;;;;;7.60;1.90;;;;;;;29.74;17.08;100014.55;109537;1253;74665;-72
2023/05/12 06:21:17;;;;;;;6.30;2.30;;;;;;;30.07;16.83;100012.29;109482;1254;59761;-69
2023/05/12 06:23:45;;;;;;;5.40;2.30;;;;;;;30.18;16.12;100011.70;109424;1254;62232;-71
2023/05/12 06:26:12;;;;;;;2.90;1.90;;;;;;;30.37;15.80;100010.59;109531;1257;76434;-69
2023/05/12 06:28:38;;;;;;;2.40;1.70;;;;;;;30.67;15.73;100017.14;109220;1254;68654;-65
2023/05/12 06:31:07;;;;;;;2.00;1.50;;;;;;;30.88;15.08;100015.27;109355;1254;74758;-68
2023/05/12 06:33:34;;;;;;;4.70;1.50;;;;;;;31.09;15.06;100011.23;109431;1252;61153;-68
2023/05/12 06:36:01;;;;;;;4.60;2.10;;;;;;;31.39;14.65;100010.92;109406;1254;61662;-69
2023/05/12 06:38:27;;;;;;;7.20;1.50;;;;;;;31.64;14.42;100010.73;109442;1254;73510;-69
2023/05/12 06:40:54;;;;;;;2.70;1.90;;;;;;;31.91;14.10;100014.76;109554;1254;68056;-69
2023/05/12 06:43:22;;;;;;;2.70;1.70;;;;;;;31.81;13.55;100016.48;109453;1254;74033;-69
2023/05/12 06:45:51;;;;;;;5.50;1.60;;;;;;;31.72;13.31;100014.64;109237;1254;61369;-70
2023/05/12 06:48:18;;;;;;;3.10;1.50;;;;;;;31.75;13.22;100012.90;109233;1252;61056;-69
2023/05/12 06:50:45;;;;;;;3.30;1.90;;;;;;;31.90;13.13;100010.09;109378;1253;76717;-69
2023/05/12 06:53:12;;;;;;;3.10;1.60;;;;;;;32.02;12.86;100008.73;109337;1254;70503;-69
2023/05/12 06:55:39;;;;;;;4.40;2.20;;;;;;;32.12;12.69;100010.51;109369;1253;74987;-69
2023/05/12 06:58:07;;;;;;;3.30;1.70;;;;;;;32.07;12.69;100011.68;109241;1253;62645;-69
2023/05/12 07:00:34;;;;;;;2.70;1.20;;;;;;;31.85;12.68;100013.02;109391;1251;62487;-69
2023/05/12 07:03:00;;;;;;;2.30;1.40;;;;;;;31.79;12.65;100016.48;109343;1254;76091;-68
2023/05/12 07:05:27;;;;;;;4.00;1.80;;;;;;;31.83;13.03;100014.38;109401;1254;70049;-69
2023/05/12 07:07:54;;;;;;;3.70;1.80;;;;;;;32.02;12.98;100009.98;109442;1252;74568;-71
2023/05/12 07:10:21;;;;;;;2.50;2.10;;;;;;;32.25;12.77;100010.17;109553;1254;61009;-69
2023/05/12 07:12:48;;;;;;;3.60;1.40;;;;;;;32.32;12.52;100009.14;109588;1254;59743;-69
2023/05/12 07:15:14;;;;;;;1.60;1.50;;;;;;;32.45;12.36;100010.18;109552;1252;75096;-68
2023/05/12 07:17:41;;;;;;;2.20;1.60;;;;;;;32.49;12.35;100013.10;109578;1253;70192;-70
2023/05/12 07:20:08;;;;;;;4.00;1.40;;;;;;;32.66;12.32;100014.15;109547;1252;72641;-69
2023/05/12 07:22:36;;;;;;;1.90;1.60;;;;;;;32.90;12.24;100013.64;109528;1252;60988;-69
2023/05/12 07:25:06;;;;;;;1.80;1.60;;;;;;;33.24;11.81;100008.80;109616;1252;59402;-67
2023/05/12 07:27:33;;;;;;;2.70;1.60;;;;;;;33.45;11.82;100012.50;109469;1252;77039;-69
2023/05/12 07:30:00;;;;;;;3.00;1.40;;;;;;;33.48;11.81;100013.04;109559;1254;69024;-69
2023/05/12 07:32:26;;;;;;;2.70;1.70;;;;;;;33.45;12.08;100009.09;109569;1254;75151;-70
2023/05/12 07:34:53;;;;;;;4.00;2.20;;;;;;;33.62;12.08;100013.71;109473;1254;62722;-70
2023/05/12 07:37:20;;;;;;;1.80;1.60;;;;;;;33.65;11.67;100015.58;109588;1253;62232;-68
2023/05/12 07:39:47;;;;;;;2.20;1.90;;;;;;;33.56;11.78;100013.27;109509;1254;75794;-68
2023/05/12 07:42:14;;;;;;;5.60;2.10;;;;;;;33.84;11.73;100010.17;109539;1252;69501;-68
2023/05/12 07:44:41;;;;;;;2.60;1.80;;;;;;;34.00;11.60;100010.96;109487;1252;71407;-68
2023/05/12 07:47:08;;;;;;;3.60;1.80;;;;;;;34.10;11.40;100012.05;109496;1254;61163;-69
2023/05/12 07:49:34;;;;;;;5.70;1.60;;;;;;;34.34;11.23;100005.60;109561;1252;61666;-68
2023/05/12 07:52:01;;;;;;;1.90;1.70;;;;;;;34.51;11.27;100001.52;109586;1253;75050;-68
2023/05/12 07:54:28;;;;;;;2.00;1.70;;;;;;;34.98;11.07;100006.52;109591;1252;69165;-70
2023/05/12 07:56:55;;;;;;;1.70;1.60;;;;;;;35.28;10.97;100001.65;109543;1252;72836;-69
2023/05/12 07:59:22;;;;;;;1.50;1.40;;;;;;;34.93;10.73;100001.79;109523;1253;61300;-70
2023/05/12 08:01:48;;;;;;;4.70;1.80;;;;;;;34.67;10.76;99995.86;109590;1253;62419;-68
2023/05/12 08:04:15;;;;;;;3.00;1.50;;;;;;;34.39;10.71;100000.20;109515;1253;75520;-68
2023/05/12 08:06:42;;;;;;;1.70;1.50;;;;;;;34.07;11.11;99999.77;109519;1253;70192;-69
2023/05/12 08:09:09;;;;;;;1.60;1.50;;;;;;;34.24;11.24;99993.13;109535;1253;74950;-70
2023/05/12 08:11:35;;;;;;;1.80;1.50;;;;;;;34.61;10.91;99999.23;109523;1253;60436;-69
2023/05/12 08:14:02;;;;;;;2.10;1.40;;;;;;;34.83;11.40;100001.83;109570;1253;62020;-68
2023/05/12 08:16:29;;;;;;;2.90;1.50;;;;;;;35.03;11.16;100002.39;109569;1253;76389;-69
2023/05/12 08:18:57;;;;;;;2.00;1.80;;;;;;;35.34;10.97;100000.70;109547;1253;70206;-69
2023/05/12 08:21:24;;;;;;;2.90;1.70;;;;;;;35.36;10.32;99995.16;109500;1254;73355;-69
2023/05/12 08:23:51;;;;;;;3.00;1.50;;;;;;;35.11;10.48;99991.35;109559;1254;62325;-69
2023/05/12 08:26:17;;;;;;;4.10;1.60;;;;;;;34.90;10.86;99992.05;109517;1253;60482;-67
2023/05/12 08:28:44;;;;;;;1.50;1.20;;;;;;;34.90;10.85;99989.64;109396;1253;74938;-69
2023/05/12 08:31:11;;;;;;;3.10;1.80;;;;;;;35.10;11.10;99990.43;109502;1253;68543;-69
2023/05/12 08:33:38;;;;;;;3.90;2.10;;;;;;;35.09;11.07;99992.61;109545;1253;74646;-69
2023/05/12 08:36:05;;;;;;;4.60;1.80;;;;;;;35.30;11.19;99987.38;109498;1254;62805;-68
2023/05/12 08:38:32;;;;;;;2.20;1.30;;;;;;;35.66;10.72;99984.48;109482;1253;61075;-69
2023/05/12 08:41:15;;;;;;;2.70;1.60;;;;;;;36.02;10.35;99982.70;109552;1253;76019;-68
2023/05/12 08:43:44;;;;;;;3.00;1.70;;;;;;;36.19;10.78;99979.10;109515;1253;67120;-68
2023/05/12 08:46:11;;;;;;;5.00;1.80;;;;;;;36.53;10.76;99978.35;109568;1253;73576;-69
2023/05/12 08:48:39;;;;;;;1.70;1.50;;;;;;;36.47;10.34;99987.32;109503;1252;62684;-69
2023/05/12 08:51:10;;;;;;;1.60;1.50;;;;;;;35.82;10.49;99982.98;109486;1253;60931;-66
2023/05/12 08:53:38;;;;;;;1.60;1.50;;;;;;;35.70;10.77;99978.27;109544;1253;76591;-69
2023/05/12 08:56:06;;;;;;;3.20;1.70;;;;;;;35.75;11.03;99974.23;109595;1254;69881;-69
2023/05/12 08:58:36;;;;;;;2.30;1.70;;;;;;;35.77;10.73;99982.45;109528;1254;73639;-69
2023/05/12 09:01:07;;;;;;;4.60;1.70;;;;;;;35.27;10.85;99978.54;109555;1251;61772;-69
2023/05/12 09:03:34;;;;;;;2.10;1.50;;;;;;;34.92;11.05;99979.38;109342;1253;61389;-69
2023/05/12 09:06:02;;;;;;;2.00;1.30;;;;;;;34.94;11.19;99969.70;109511;1253;76675;-69
2023/05/12 09:08:30;;;;;;;2.40;1.40;;;;;;;35.23;11.07;99973.36;109451;1253;68737;-68
2023/05/12 09:10:57;;;;;;;4.30;1.80;;;;;;;35.33;10.74;99968.64;109491;1252;73477;-69
2023/05/12 09:13:28;;;;;;;1.90;1.40;;;;;;;35.05;11.25;99980.84;109553;1252;59905;-69
2023/05/12 09:15:57;;;;;;;2.00;1.70;;;;;;;34.75;11.09;99976.02;109577;1252;61128;-73
2023/05/12 09:18:24;;;;;;;2.10;1.60;;;;;;;33.49;11.50;99974.89;109335;1253;249482;-73
2023/05/12 09:20:51;;;;;;;2.20;1.40;;;;;;;32.28;12.16;99980.36;109514;1253;69297;-68
2023/05/12 09:23:19;;;;;;;1.80;1.70;;;;;;;31.93;12.63;99977.27;109461;1252;75346;-66
2023/05/12 09:25:46;;;;;;;2.30;1.40;;;;;;;31.52;13.16;99981.04;109420;1252;61008;-72
2023/05/12 09:28:12;;;;;;;2.10;1.60;;;;;;;31.69;12.94;99969.35;109568;1253;62293;-67
2023/05/12 09:30:41;;;;;;;3.20;1.70;;;;;;;32.74;12.54;99963.84;109195;1252;76130;-70
2023/05/12 09:33:09;;;;;;;3.70;1.70;;;;;;;33.77;11.96;99963.87;109549;1253;69946;-68
2023/05/12 09:35:45;;;;;;;2.20;1.80;;;;;;;34.49;11.41;99967.86;109507;1253;72578;-66
2023/05/12 09:38:12;;;;;;;2.20;1.60;;;;;;;34.43;11.43;99953.77;109494;1253;61787;-73
2023/05/12 09:40:39;;;;;;;2.60;1.60;;;;;;;34.68;11.48;99955.64;109427;1253;61052;-71
2023/05/12 09:43:06;;;;;;;2.00;1.80;;;;;;;35.31;11.11;99952.17;109498;1252;76047;-71
2023/05/12 09:45:34;;;;;;;5.00;2.30;;;;;;;35.51;10.95;99949.52;109485;1253;69003;-69
2023/05/12 09:48:09;;;;;;;1.70;1.60;;;;;;;35.64;10.81;99948.17;109459;1253;75020;-73
2023/05/12 09:50:46;;;;;;;2.30;1.60;;;;;;;35.20;10.81;99941.27;109415;1253;61494;-73
2023/05/12 09:53:16;;;;;;;1.70;1.60;;;;;;;34.58;11.40;99941.74;109548;1253;62231;-70
2023/05/12 09:55:44;;;;;;;5.70;1.60;;;;;;;34.51;11.49;99946.10;109389;1253;73332;-70
2023/05/12 09:58:11;;;;;;;2.80;1.60;;;;;;;34.37;11.35;99945.53;109567;1253;66484;-67
2023/05/12 10:00:38;;;;;;;1.90;1.60;;;;;;;34.63;11.53;99942.46;109446;1251;75164;-71
2023/05/12 10:03:25;;;;;;;6.80;1.90;;;;;;;35.20;11.26;99935.35;109397;1252;61967;-67
2023/05/12 10:05:57;;;;;;;4.30;1.50;;;;;;;35.31;11.02;99929.44;109427;1253;60919;-67
2023/05/12 10:08:26;;;;;;;2.10;1.60;;;;;;;35.31;11.18;99929.66;109491;1253;76492;-68
2023/05/12 10:10:53;;;;;;;4.60;1.90;;;;;;;34.68;11.60;99928.64;109360;1253;69582;-67
2023/05/12 10:13:19;;;;;;;3.40;1.60;;;;;;;34.73;11.54;99926.23;109329;1254;74005;-69
2023/05/12 10:15:47;;;;;;;1.40;1.30;;;;;;;34.70;11.49;99927.49;109263;1252;62824;-66
2023/05/12 10:18:15;;;;;;;2.40;1.60;;;;;;;33.82;11.81;99926.99;109327;1252;62874;-65
2023/05/12 10:20:45;;;;;;;1.60;1.40;;;;;;;32.59;12.34;99928.69;109309;1252;76774;-65
2023/05/12 10:23:13;;;;;;;2.90;1.50;;;;;;;31.22;13.14;99924.55;109450;1253;69500;-65
2023/05/12 10:25:40;;;;;;;2.30;1.50;;;;;;;30.21;13.98;99928.77;109281;1254;74034;-64
2023/05/12 10:28:07;;;;;;;2.90;1.90;;;;;;;29.31;14.35;99922.41;109458;1252;58960;-67
2023/05/12 10:30:36;;;;;;;2.40;1.50;;;;;;;28.67;15.01;99918.86;109398;1251;61250;-65
2023/05/12 10:33:04;;;;;;;2.20;1.70;;;;;;;28.16;15.69;99922.64;109395;1253;76625;-66
2023/05/12 10:35:32;;;;;;;3.40;1.80;;;;;;;27.56;16.41;99922.84;109338;1253;68411;-66
2023/05/12 10:38:06;;;;;;;5.00;1.60;;;;;;;26.98;16.80;99920.71;109281;1252;75158;-67
2023/05/12 10:40:33;;;;;;;2.20;1.60;;;;;;;26.57;17.27;99920.96;109296;1253;61674;-63
2023/05/12 10:43:00;;;;;;;1.80;1.30;;;;;;;26.27;17.54;99921.86;109303;1253;62739;-67
2023/05/12 10:45:27;;;;;;;5.00;1.60;;;;;;;25.97;17.65;99921.48;109417;1253;76657;-67
2023/05/12 10:48:04;;;;;;;1.50;1.40;;;;;;;25.57;17.76;99923.34;109437;1252;69235;-63
2023/05/12 10:50:30;;;;;;;2.70;1.50;;;;;;;24.82;18.20;99927.91;109275;1252;73133;-63
2023/05/12 10:52:57;;;;;;;2.80;1.50;;;;;;;24.12;18.74;99923.59;109301;1253;62333;-67
2023/05/12 10:55:31;;;;;;;2.00;1.70;;;;;;;23.53;19.47;99912.94;109443;1253;60196;-62
2023/05/12 10:58:09;;;;;;;3.80;1.60;;;;;;;23.16;19.99;99922.23;109449;1253;74986;-66
2023/05/12 11:00:49;;;;;;;1.60;1.50;;;;;;;22.83;20.46;99916.80;109540;1252;70286;-65
2023/05/12 11:03:21;;;;;;;2.00;1.50;;;;;;;22.64;20.35;99918.96;109325;1252;74272;-64
2023/05/12 11:06:00;;;;;;;2.60;1.90;;;;;;;22.54;20.64;99922.14;109232;1253;62478;-67
2023/05/12 11:08:29;;;;;;;2.00;1.80;;;;;;;22.42;20.74;99927.29;109344;1252;60596;-65
2023/05/12 11:10:58;;;;;;;2.80;1.60;;;;;;;22.22;20.97;99915.20;109435;1252;76892;-67
2023/05/12 11:13:25;;;;;;;5.00;2.20;;;;;;;22.06;21.33;99922.43;109327;1252;68256;-64
2023/05/12 11:15:51;;;;;;;4.20;2.00;;;;;;;21.98;21.13;99913.66;109284;1252;74811;-65
2023/05/12 11:18:20;;;;;;;4.70;1.70;;;;;;;21.94;21.82;99909.25;109225;1253;62489;-64
2023/05/12 11:20:47;;;;;;;3.80;1.60;;;;;;;21.96;21.98;99904.52;109375;1253;62367;-62
2023/05/12 11:23:25;;;;;;;4.10;1.40;;;;;;;21.98;22.01;99899.30;109397;1253;75837;-70
2023/05/12 11:25:52;;;;;;;5.40;1.80;;;;;;;22.02;24.01;99900.59;109448;1253;68866;-66